createdAt,value
2019-04-01T00:00:09.065Z,64.73
2019-04-01T00:01:09.056Z,64.52
2019-04-01T00:02:09.067Z,64.94
2019-04-01T00:03:09.033Z,64.62
2019-04-01T00:04:09.022Z,65.45
2019-04-01T00:05:09.012Z,65.25
2019-04-01T00:06:09.002Z,65.25
2019-04-01T00:07:08.992Z,65.35
2019-04-01T00:08:08.991Z,65.25
2019-04-01T00:09:08.970Z,64.94
2019-04-01T00:10:08.960Z,64.83
2019-04-01T00:11:08.951Z,65.77
2019-04-01T00:12:08.939Z,65.35
2019-04-01T00:13:08.932Z,65.14
2019-04-01T00:14:08.933Z,65.14
2019-04-01T00:15:08.909Z,65.14
2019-04-01T00:16:08.898Z,64.52
2019-04-01T00:17:08.893Z,64.55
2019-04-01T00:18:08.877Z,64.65
2019-04-01T00:19:08.867Z,64.73
2019-04-01T00:20:08.867Z,64.62
2019-04-01T00:21:08.845Z,64.76
2019-04-01T00:22:08.838Z,64.83
2019-04-01T00:23:09.022Z,64.86
2019-04-01T00:24:08.815Z,64.55
2019-04-01T00:25:08.808Z,65.69
2019-04-01T00:26:08.806Z,65.80
2019-04-01T00:27:08.782Z,64.76
2019-04-01T00:28:08.775Z,65.07
2019-04-01T00:29:08.762Z,65.80
2019-04-01T00:30:08.751Z,65.48
2019-04-01T00:31:08.741Z,64.86
2019-04-01T00:32:08.741Z,65.59
2019-04-01T00:33:08.721Z,65.48
2019-04-01T00:34:08.709Z,65.80
2019-04-01T00:35:08.702Z,64.65
2019-04-01T00:36:08.692Z,64.86
2019-04-01T00:37:08.682Z,65.59
2019-04-01T00:38:08.681Z,64.69
2019-04-01T00:39:08.710Z,64.55
2019-04-01T00:40:08.650Z,65.31
2019-04-01T00:41:08.637Z,65.59
2019-04-01T00:42:08.629Z,64.76
2019-04-01T00:43:08.616Z,64.86
2019-04-01T00:44:08.618Z,65.41
2019-04-01T00:45:08.594Z,64.65
2019-04-01T00:46:08.587Z,65.20
2019-04-01T00:47:08.573Z,65.17
2019-04-01T00:48:08.562Z,65.69
2019-04-01T00:49:08.551Z,65.17
2019-04-01T00:50:08.555Z,65.38
2019-04-01T00:51:08.533Z,65.07
2019-04-01T00:52:08.521Z,65.17
2019-04-01T00:53:08.510Z,66.11
2019-04-01T00:54:08.500Z,66.11
2019-04-01T00:55:08.491Z,65.93
2019-04-01T00:56:08.489Z,66.45
2019-04-01T00:57:08.469Z,66.56
2019-04-01T00:58:08.461Z,66.77
2019-04-01T00:59:08.449Z,66.24
2019-04-01T01:00:08.437Z,66.77
2019-04-01T01:01:08.467Z,66.24
2019-04-01T01:02:08.427Z,66.45
2019-04-01T01:03:08.406Z,66.45
2019-04-01T01:04:08.396Z,66.56
2019-04-01T01:05:08.386Z,67.39
2019-04-01T01:06:08.376Z,67.18
2019-04-01T01:07:08.368Z,66.97
2019-04-01T01:08:08.376Z,66.97
2019-04-01T01:09:08.347Z,66.97
2019-04-01T01:10:08.334Z,67.49
2019-04-01T01:11:08.324Z,67.11
2019-04-01T01:12:08.313Z,67.21
2019-04-01T01:13:08.301Z,67.18
2019-04-01T01:14:08.309Z,66.80
2019-04-01T01:15:08.282Z,67.63
2019-04-01T01:16:08.270Z,67.29
2019-04-01T01:17:08.266Z,66.66
2019-04-01T01:18:08.250Z,66.59
2019-04-01T01:19:08.245Z,66.80
2019-04-01T01:20:08.242Z,67.18
2019-04-01T01:21:08.217Z,66.90
2019-04-01T01:22:08.207Z,66.77
2019-04-01T01:23:08.196Z,66.66
2019-04-01T01:24:08.186Z,67.11
2019-04-01T01:25:08.176Z,67.39
2019-04-01T01:26:08.176Z,67.29
2019-04-01T01:27:08.158Z,67.11
2019-04-01T01:28:08.145Z,67.21
2019-04-01T01:29:08.139Z,66.90
2019-04-01T01:30:08.123Z,67.32
2019-04-01T01:31:08.113Z,66.80
2019-04-01T01:32:08.115Z,66.90
2019-04-01T01:33:08.091Z,66.90
2019-04-01T01:34:08.081Z,67.32
2019-04-01T01:35:08.071Z,67.73
2019-04-01T01:36:08.060Z,68.04
2019-04-01T01:37:08.050Z,67.94
2019-04-01T01:38:08.051Z,67.94
2019-04-01T01:39:08.028Z,68.46
2019-04-01T01:40:08.019Z,67.63
2019-04-01T01:41:08.007Z,67.63
2019-04-01T01:42:07.998Z,68.56
2019-04-01T01:43:07.997Z,68.60
2019-04-01T01:44:07.989Z,68.70
2019-04-01T01:45:07.965Z,68.66
2019-04-01T01:46:07.955Z,68.66
2019-04-01T01:47:07.944Z,68.60
2019-04-01T01:48:07.934Z,68.38
2019-04-01T01:49:07.923Z,68.80
2019-04-01T01:50:07.932Z,68.80
2019-04-01T01:51:07.901Z,68.38
2019-04-01T01:52:07.892Z,68.38
2019-04-01T01:53:07.880Z,68.60
2019-04-01T01:54:07.873Z,69.12
2019-04-01T01:55:07.858Z,69.12
2019-04-01T01:56:07.862Z,68.91
2019-04-01T01:57:07.838Z,68.70
2019-04-01T01:58:07.835Z,68.70
2019-04-01T01:59:07.816Z,68.49
2019-04-01T02:00:07.804Z,68.70
2019-04-01T02:01:07.794Z,69.12
2019-04-01T02:02:07.799Z,69.04
2019-04-01T02:03:07.773Z,69.25
2019-04-01T02:04:07.766Z,69.56
2019-04-01T02:05:07.751Z,69.46
2019-04-01T02:06:07.740Z,69.84
2019-04-01T02:07:07.730Z,69.77
2019-04-01T02:08:07.730Z,70.40
2019-04-01T02:09:07.708Z,70.40
2019-04-01T02:10:07.698Z,70.29
2019-04-01T02:11:07.687Z,70.09
2019-04-01T02:12:07.677Z,70.61
2019-04-01T02:13:07.671Z,70.71
2019-04-01T02:14:07.672Z,70.09
2019-04-01T02:15:07.645Z,70.40
2019-04-01T02:16:07.634Z,70.29
2019-04-01T02:17:07.626Z,70.50
2019-04-01T02:18:07.613Z,70.50
2019-04-01T02:19:07.608Z,70.09
2019-04-01T02:20:07.614Z,70.09
2019-04-01T02:21:07.582Z,70.84
2019-04-01T02:22:07.569Z,70.92
2019-04-01T02:23:07.559Z,71.02
2019-04-01T02:24:07.553Z,71.02
2019-04-01T02:25:07.536Z,71.12
2019-04-01T02:26:07.536Z,71.02
2019-04-01T02:27:07.516Z,71.05
2019-04-01T02:28:07.503Z,71.05
2019-04-01T02:29:07.493Z,71.05
2019-04-01T02:30:07.483Z,70.95
2019-04-01T02:31:07.472Z,71.12
2019-04-01T02:32:07.472Z,71.26
2019-04-01T02:33:07.451Z,71.37
2019-04-01T02:34:07.441Z,71.47
2019-04-01T02:35:07.429Z,71.26
2019-04-01T02:36:07.418Z,71.47
2019-04-01T02:37:07.410Z,71.47
2019-04-01T02:38:07.408Z,71.16
2019-04-01T02:39:07.393Z,71.58
2019-04-01T02:40:07.376Z,71.58
2019-04-01T02:41:07.366Z,71.68
2019-04-01T02:42:07.386Z,71.78
2019-04-01T02:43:07.342Z,71.89
2019-04-01T02:44:07.344Z,71.78
2019-04-01T02:45:07.321Z,71.78
2019-04-01T02:46:07.316Z,71.89
2019-04-01T02:47:07.301Z,71.99
2019-04-01T02:48:07.290Z,71.99
2019-04-01T02:49:07.280Z,72.09
2019-04-01T02:50:07.286Z,72.09
2019-04-01T02:51:07.267Z,72.20
2019-04-01T02:52:07.250Z,71.99
2019-04-01T02:53:07.238Z,71.99
2019-04-01T02:54:07.226Z,72.41
2019-04-01T02:55:07.553Z,72.20
2019-04-01T02:56:07.224Z,72.72
2019-04-01T02:57:07.195Z,72.20
2019-04-01T02:58:07.184Z,72.96
2019-04-01T02:59:07.172Z,72.96
2019-04-01T03:00:07.176Z,72.72
2019-04-01T03:01:07.153Z,72.83
2019-04-01T03:02:07.152Z,72.72
2019-04-01T03:03:07.131Z,72.96
2019-04-01T03:04:07.122Z,72.72
2019-04-01T03:05:07.111Z,73.38
2019-04-01T03:06:07.112Z,73.59
2019-04-01T03:07:07.097Z,73.59
2019-04-01T03:08:07.097Z,73.17
2019-04-01T03:09:07.070Z,73.27
2019-04-01T03:10:07.058Z,73.27
2019-04-01T03:11:10.340Z,73.27
2019-04-01T03:12:07.039Z,73.27
2019-04-01T03:13:07.028Z,73.07
2019-04-01T03:14:07.038Z,73.27
2019-04-01T03:15:07.017Z,73.80
2019-04-01T03:16:06.996Z,74.32
2019-04-01T03:17:06.988Z,73.07
2019-04-01T03:18:06.976Z,73.69
2019-04-01T03:19:06.966Z,73.49
2019-04-01T03:20:06.964Z,73.41
2019-04-01T03:21:06.944Z,73.52
2019-04-01T03:22:06.934Z,73.59
2019-04-01T03:23:06.922Z,73.80
2019-04-01T03:24:06.912Z,73.90
2019-04-01T03:25:06.901Z,74.04
2019-04-01T03:26:06.904Z,74.15
2019-04-01T03:27:06.881Z,73.93
2019-04-01T03:28:06.870Z,73.93
2019-04-01T03:29:06.861Z,73.62
2019-04-01T03:30:06.854Z,74.66
2019-04-01T03:31:06.839Z,74.46
2019-04-01T03:32:06.900Z,74.25
2019-04-01T03:33:06.830Z,74.46
2019-04-01T03:34:06.809Z,74.87
2019-04-01T03:35:06.798Z,74.60
2019-04-01T03:36:06.788Z,74.87
2019-04-01T03:37:06.777Z,74.91
2019-04-01T03:38:06.779Z,74.98
2019-04-01T03:39:06.762Z,74.98
2019-04-01T03:40:06.746Z,74.91
2019-04-01T03:41:06.738Z,75.01
2019-04-01T03:42:06.726Z,75.12
2019-04-01T03:43:06.729Z,74.91
2019-04-01T03:44:06.715Z,75.32
2019-04-01T03:45:06.714Z,75.22
2019-04-01T03:46:06.688Z,75.12
2019-04-01T03:47:06.683Z,74.91
2019-04-01T03:48:06.662Z,75.01
2019-04-01T03:49:06.752Z,75.12
2019-04-01T03:50:06.685Z,75.12
2019-04-01T03:51:06.637Z,74.91
2019-04-01T03:52:10.254Z,75.01
2019-04-01T03:53:06.615Z,75.22
2019-04-01T03:54:06.601Z,75.22
2019-04-01T03:55:06.592Z,75.01
2019-04-01T03:56:06.593Z,75.53
2019-04-01T03:57:06.577Z,75.43
2019-04-01T03:58:06.579Z,75.22
2019-04-01T03:59:06.556Z,75.85
2019-04-01T04:00:06.539Z,75.95
2019-04-01T04:01:06.530Z,75.95
2019-04-01T04:02:06.537Z,76.16
2019-04-01T04:03:06.508Z,75.95
2019-04-01T04:04:06.498Z,75.74
2019-04-01T04:05:06.488Z,75.85
2019-04-01T04:06:06.477Z,75.95
2019-04-01T04:07:06.468Z,75.74
2019-04-01T04:08:06.465Z,75.85
2019-04-01T04:09:06.446Z,75.95
2019-04-01T04:10:06.435Z,75.95
2019-04-01T04:11:06.434Z,75.98
2019-04-01T04:12:06.423Z,76.16
2019-04-01T04:13:06.405Z,76.20
2019-04-01T04:14:06.405Z,76.06
2019-04-01T04:15:06.408Z,76.09
2019-04-01T04:16:06.377Z,76.51
2019-04-01T04:17:06.364Z,76.26
2019-04-01T04:18:06.353Z,76.20
2019-04-01T04:19:06.364Z,76.61
2019-04-01T04:20:06.367Z,76.82
2019-04-01T04:21:06.326Z,76.61
2019-04-01T04:22:06.314Z,76.51
2019-04-01T04:23:06.308Z,76.72
2019-04-01T04:24:06.291Z,76.82
2019-04-01T04:25:06.282Z,76.26
2019-04-01T04:26:06.305Z,76.61
2019-04-01T04:27:10.744Z,76.92
2019-04-01T04:28:06.249Z,76.82
2019-04-01T04:29:06.240Z,76.72
2019-04-01T04:30:06.355Z,76.82
2019-04-01T04:31:06.216Z,76.82
2019-04-01T04:32:06.215Z,76.72
2019-04-01T04:33:06.194Z,76.82
2019-04-01T04:34:06.184Z,76.82
2019-04-01T04:35:06.173Z,76.72
2019-04-01T04:36:06.165Z,76.72
2019-04-01T04:37:06.161Z,76.82
2019-04-01T04:38:06.173Z,76.72
2019-04-01T04:39:06.144Z,76.82
2019-04-01T04:40:06.122Z,76.72
2019-04-01T04:41:06.112Z,77.14
2019-04-01T04:42:06.100Z,77.66
2019-04-01T04:43:06.089Z,76.72
2019-04-01T04:44:06.090Z,76.92
2019-04-01T04:45:06.091Z,77.55
2019-04-01T04:46:06.059Z,76.82
2019-04-01T04:47:06.050Z,76.72
2019-04-01T04:48:06.039Z,76.82
2019-04-01T04:49:06.029Z,77.14
2019-04-01T04:50:06.028Z,77.34
2019-04-01T04:51:06.021Z,77.55
2019-04-01T04:52:05.997Z,77.03
2019-04-01T04:53:05.986Z,76.72
2019-04-01T04:54:05.976Z,77.24
2019-04-01T04:55:05.965Z,76.82
2019-04-01T04:56:05.966Z,77.14
2019-04-01T04:57:05.944Z,77.45
2019-04-01T04:58:05.933Z,77.38
2019-04-01T04:59:05.924Z,77.45
2019-04-01T05:00:05.913Z,77.34
2019-04-01T05:01:05.902Z,77.55
2019-04-01T05:02:05.907Z,77.03
2019-04-01T05:03:05.881Z,76.92
2019-04-01T05:04:05.871Z,77.55
2019-04-01T05:05:05.860Z,77.48
2019-04-01T05:06:05.850Z,77.24
2019-04-01T05:07:05.848Z,77.27
2019-04-01T05:08:05.842Z,77.55
2019-04-01T05:09:05.831Z,77.55
2019-04-01T05:10:05.808Z,77.34
2019-04-01T05:11:05.798Z,77.27
2019-04-01T05:12:05.788Z,77.24
2019-04-01T05:13:05.776Z,77.03
2019-04-01T05:14:05.777Z,77.14
2019-04-01T05:15:05.755Z,77.06
2019-04-01T05:16:05.745Z,76.96
2019-04-01T05:17:05.734Z,77.34
2019-04-01T05:18:05.730Z,77.45
2019-04-01T05:19:05.715Z,77.66
2019-04-01T05:20:05.714Z,77.17
2019-04-01T05:21:05.693Z,76.72
2019-04-01T05:22:05.683Z,76.82
2019-04-01T05:23:05.672Z,76.72
2019-04-01T05:24:05.661Z,76.82
2019-04-01T05:25:05.650Z,76.82
2019-04-01T05:26:05.650Z,76.61
2019-04-01T05:27:05.630Z,76.82
2019-04-01T05:28:05.620Z,76.61
2019-04-01T05:29:05.608Z,76.20
2019-04-01T05:30:05.599Z,76.09
2019-04-01T05:31:05.591Z,76.37
2019-04-01T05:32:05.587Z,76.30
2019-04-01T05:33:05.573Z,76.09
2019-04-01T05:34:05.555Z,75.95
2019-04-01T05:35:05.544Z,76.06
2019-04-01T05:36:05.535Z,74.70
2019-04-01T05:37:08.774Z,74.87
2019-04-01T05:38:05.523Z,75.22
2019-04-01T05:39:05.504Z,74.77
2019-04-01T05:40:05.574Z,74.98
2019-04-01T05:41:05.483Z,74.70
2019-04-01T05:42:05.472Z,74.70
2019-04-01T05:43:05.467Z,73.83
2019-04-01T05:44:05.462Z,73.90
2019-04-01T05:45:05.441Z,73.93
2019-04-01T05:46:05.429Z,73.38
2019-04-01T05:47:05.423Z,72.30
2019-04-01T05:48:05.413Z,72.09
2019-04-01T05:49:05.400Z,71.47
2019-04-01T05:50:05.397Z,71.86
2019-04-01T05:51:05.376Z,71.16
2019-04-01T05:52:05.364Z,71.44
2019-04-01T05:53:05.355Z,71.33
2019-04-01T05:54:05.343Z,71.54
2019-04-01T05:55:08.788Z,71.47
2019-04-01T05:56:05.333Z,71.12
2019-04-01T05:57:05.312Z,69.95
2019-04-01T05:58:05.302Z,70.36
2019-04-01T05:59:05.291Z,70.47
2019-04-01T06:00:05.280Z,70.47
2019-04-01T06:01:05.269Z,70.47
2019-04-01T06:02:05.268Z,70.05
2019-04-01T06:03:05.247Z,70.68
2019-04-01T06:04:05.239Z,70.68
2019-04-01T06:05:05.226Z,70.15
2019-04-01T06:06:05.214Z,70.33
2019-04-01T06:07:05.205Z,69.19
2019-04-01T06:08:05.205Z,70.02
2019-04-01T06:09:05.183Z,69.09
2019-04-01T06:10:05.174Z,69.05
2019-04-01T06:11:05.162Z,68.32
2019-04-01T06:12:05.152Z,69.47
2019-04-01T06:13:05.144Z,68.53
2019-04-01T06:14:05.142Z,67.91
2019-04-01T06:15:05.120Z,67.60
2019-04-01T06:16:05.110Z,67.70
2019-04-01T06:17:05.099Z,67.60
2019-04-01T06:18:05.088Z,67.60
2019-04-01T06:19:06.145Z,67.60
2019-04-01T06:20:05.079Z,67.39
2019-04-01T06:21:05.059Z,66.74
2019-04-01T06:22:05.045Z,67.25
2019-04-01T06:23:05.033Z,66.74
2019-04-01T06:24:05.105Z,67.12
2019-04-01T06:25:05.013Z,66.71
2019-04-01T06:26:05.027Z,65.14
2019-04-01T06:27:04.991Z,66.08
2019-04-01T06:28:04.982Z,65.94
2019-04-01T06:29:04.969Z,64.59
2019-04-01T06:30:04.959Z,65.32
2019-04-01T06:31:04.950Z,64.87
2019-04-01T06:32:04.954Z,64.67
2019-04-01T06:33:04.927Z,64.87
2019-04-01T06:34:04.916Z,64.12
2019-04-01T06:35:04.908Z,63.81
2019-04-01T06:36:04.895Z,63.78
2019-04-01T06:37:04.883Z,62.23
2019-04-01T06:38:04.892Z,62.02
2019-04-01T06:39:04.863Z,61.91
2019-04-01T06:40:04.851Z,62.23
2019-04-01T06:41:04.840Z,61.68
2019-04-01T06:42:07.133Z,61.76
2019-04-01T06:43:04.819Z,60.72
2019-04-01T06:44:04.818Z,60.10
2019-04-01T06:45:04.797Z,59.89
2019-04-01T06:46:04.861Z,60.58
2019-04-01T06:47:04.776Z,59.96
2019-04-01T06:48:04.765Z,59.78
2019-04-01T06:49:04.755Z,60.10
2019-04-01T06:50:04.755Z,60.72
2019-04-01T06:51:04.735Z,60.06
2019-04-01T06:52:04.721Z,60.17
2019-04-01T06:53:04.711Z,59.45
2019-04-01T06:54:04.700Z,59.86
2019-04-01T06:55:04.688Z,59.94
2019-04-01T06:56:04.692Z,59.60
2019-04-01T06:57:04.667Z,59.21
2019-04-01T06:58:04.659Z,59.39
2019-04-01T06:59:04.647Z,58.77
2019-04-01T07:00:04.635Z,58.59
2019-04-01T07:01:04.626Z,58.77
2019-04-01T07:02:04.624Z,57.92
2019-04-01T07:03:04.602Z,58.04
2019-04-01T07:04:04.591Z,58.02
2019-04-01T07:05:04.580Z,57.42
2019-04-01T07:06:04.570Z,57.19
2019-04-01T07:07:17.799Z,57.60
2019-04-01T07:08:05.557Z,56.68
2019-04-01T07:09:04.539Z,56.88
2019-04-01T07:10:04.555Z,57.06
2019-04-01T07:11:04.514Z,55.72
2019-04-01T07:12:04.503Z,56.05
2019-04-01T07:13:04.495Z,55.93
2019-04-01T07:14:04.493Z,55.51
2019-04-01T07:15:04.471Z,55.69
2019-04-01T07:16:15.424Z,55.05
2019-04-01T07:17:05.475Z,53.91
2019-04-01T07:18:04.440Z,54.53
2019-04-01T07:19:04.430Z,54.09
2019-04-01T07:20:04.428Z,52.86
2019-04-01T07:21:04.408Z,53.06
2019-04-01T07:22:04.395Z,53.08
2019-04-01T07:23:04.385Z,53.29
2019-04-01T07:24:04.375Z,52.65
2019-04-01T07:25:04.364Z,53.16
2019-04-01T07:26:04.366Z,52.73
2019-04-01T07:27:07.836Z,51.57
2019-04-01T07:28:04.331Z,52.16
2019-04-01T07:29:04.319Z,51.62
2019-04-01T07:30:04.308Z,50.59
2019-04-01T07:31:04.300Z,49.56
2019-04-01T07:32:04.297Z,48.97
2019-04-01T07:33:04.278Z,50.02
2019-04-01T07:34:04.265Z,50.31
2019-04-01T07:35:04.254Z,50.80
2019-04-01T07:36:04.245Z,49.77
2019-04-01T07:37:04.235Z,49.66
2019-04-01T07:38:04.233Z,49.15
2019-04-01T07:39:04.214Z,49.66
2019-04-01T07:40:04.203Z,49.56
2019-04-01T07:41:04.195Z,49.05
2019-04-01T07:42:04.181Z,49.33
2019-04-01T07:43:04.169Z,49.10
2019-04-01T07:44:04.173Z,48.36
2019-04-01T07:45:04.150Z,48.57
2019-04-01T07:46:04.140Z,47.41
2019-04-01T07:47:04.126Z,47.13
2019-04-01T07:48:04.114Z,46.53
2019-04-01T07:49:04.123Z,47.69
2019-04-01T07:50:04.120Z,46.76
2019-04-01T07:51:07.117Z,47.05
2019-04-01T07:52:04.069Z,47.23
2019-04-01T07:53:04.058Z,46.51
2019-04-01T07:54:04.048Z,47.00
2019-04-01T07:55:04.040Z,46.47
2019-04-01T07:56:04.040Z,45.64
2019-04-01T07:57:04.014Z,44.72
2019-04-01T07:58:04.019Z,45.13
2019-04-01T07:59:03.993Z,46.57
2019-04-01T08:00:03.984Z,46.65
2019-04-01T08:01:03.971Z,45.42
2019-04-01T08:02:03.970Z,45.72
2019-04-01T08:03:03.950Z,44.08
2019-04-01T08:04:03.939Z,45.36
2019-04-01T08:05:03.930Z,46.36
2019-04-01T08:06:03.918Z,46.06
2019-04-01T08:07:03.907Z,44.82
2019-04-01T08:08:03.909Z,45.34
2019-04-01T08:09:03.888Z,45.34
2019-04-01T08:10:03.876Z,45.72
2019-04-01T08:11:03.864Z,46.03
2019-04-01T08:12:03.855Z,44.68
2019-04-01T08:13:03.845Z,45.70
2019-04-01T08:14:03.843Z,44.96
2019-04-01T08:15:03.822Z,44.65
2019-04-01T08:16:03.812Z,44.04
2019-04-01T08:17:03.799Z,44.45
2019-04-01T08:18:03.789Z,44.06
2019-04-01T08:19:03.779Z,44.04
2019-04-01T08:20:03.777Z,43.96
2019-04-01T08:21:03.757Z,45.37
2019-04-01T08:22:03.752Z,44.33
2019-04-01T08:23:03.733Z,44.41
2019-04-01T08:24:03.724Z,44.10
2019-04-01T08:25:03.713Z,43.16
2019-04-01T08:26:03.719Z,42.95
2019-04-01T08:27:07.169Z,42.46
2019-04-01T08:28:03.680Z,43.28
2019-04-01T08:29:03.669Z,43.38
2019-04-01T08:30:03.661Z,43.07
2019-04-01T08:31:03.647Z,42.79
2019-04-01T08:32:03.667Z,44.45
2019-04-01T08:33:03.653Z,43.22
2019-04-01T08:34:03.614Z,42.69
2019-04-01T08:35:03.606Z,43.63
2019-04-01T08:36:03.593Z,44.64
2019-04-01T08:37:03.582Z,43.61
2019-04-01T08:38:03.584Z,42.66
2019-04-01T08:39:03.560Z,42.87
2019-04-01T08:40:03.550Z,42.56
2019-04-01T08:41:03.539Z,43.18
2019-04-01T08:42:03.532Z,43.05
2019-04-01T08:43:03.518Z,42.46
2019-04-01T08:44:03.522Z,42.77
2019-04-01T08:45:03.496Z,42.99
2019-04-01T08:46:03.485Z,44.10
2019-04-01T08:47:03.475Z,43.05
2019-04-01T08:48:03.463Z,43.37
2019-04-01T08:49:03.453Z,42.44
2019-04-01T08:50:03.451Z,43.38
2019-04-01T08:51:03.429Z,43.18
2019-04-01T08:52:03.424Z,42.15
2019-04-01T08:53:03.407Z,43.79
2019-04-01T08:54:03.396Z,42.34
2019-04-01T08:55:03.389Z,42.24
2019-04-01T08:56:03.385Z,42.15
2019-04-01T08:57:03.364Z,42.56
2019-04-01T08:58:03.355Z,43.61
2019-04-01T08:59:03.347Z,43.69
2019-04-01T09:00:03.332Z,43.38
2019-04-01T09:01:03.318Z,44.10
2019-04-01T09:02:17.189Z,43.46
2019-04-01T09:03:04.319Z,42.73
2019-04-01T09:04:03.287Z,42.85
2019-04-01T09:05:03.278Z,42.93
2019-04-01T09:06:03.321Z,43.34
2019-04-01T09:07:03.251Z,42.01
2019-04-01T09:08:03.255Z,42.22
2019-04-01T09:09:03.229Z,42.01
2019-04-01T09:10:03.220Z,41.83
2019-04-01T09:11:03.209Z,42.44
2019-04-01T09:12:03.196Z,42.13
2019-04-01T09:13:03.186Z,43.07
2019-04-01T09:14:03.185Z,42.75
2019-04-01T09:15:03.163Z,42.52
2019-04-01T09:16:03.153Z,42.93
2019-04-01T09:17:03.142Z,42.58
2019-04-01T09:18:03.134Z,42.71
2019-04-01T09:19:03.119Z,41.89
2019-04-01T09:20:03.120Z,41.83
2019-04-01T09:21:03.096Z,42.95
2019-04-01T09:22:03.085Z,42.63
2019-04-01T09:23:03.079Z,42.42
2019-04-01T09:24:03.063Z,41.89
2019-04-01T09:25:03.051Z,41.07
2019-04-01T09:26:03.075Z,42.18
2019-04-01T09:27:03.028Z,41.56
2019-04-01T09:28:03.018Z,40.64
2019-04-01T09:29:03.008Z,41.77
2019-04-01T09:30:02.996Z,40.95
2019-04-01T09:31:02.984Z,42.16
2019-04-01T09:32:02.984Z,41.13
2019-04-01T09:33:02.970Z,40.84
2019-04-01T09:34:02.953Z,41.66
2019-04-01T09:35:02.943Z,40.66
2019-04-01T09:36:02.931Z,40.45
2019-04-01T09:37:02.919Z,40.37
2019-04-01T09:38:02.922Z,41.07
2019-04-01T09:39:02.896Z,40.99
2019-04-01T09:40:02.885Z,41.38
2019-04-01T09:41:02.875Z,40.76
2019-04-01T09:42:02.863Z,41.99
2019-04-01T09:43:02.851Z,40.95
2019-04-01T09:44:02.851Z,41.15
2019-04-01T09:45:02.830Z,40.03
2019-04-01T09:46:02.819Z,41.46
2019-04-01T09:47:02.814Z,40.93
2019-04-01T09:48:02.798Z,39.92
2019-04-01T09:49:02.785Z,39.53
2019-04-01T09:50:02.786Z,39.74
2019-04-01T09:51:02.766Z,39.94
2019-04-01T09:52:03.956Z,40.23
2019-04-01T09:53:02.743Z,39.41
2019-04-01T09:54:02.730Z,40.23
2019-04-01T09:55:05.981Z,40.03
2019-04-01T09:56:02.719Z,39.51
2019-04-01T09:57:16.812Z,40.23
2019-04-01T09:58:03.685Z,40.11
2019-04-01T09:59:02.675Z,40.11
2019-04-01T10:00:02.664Z,38.78
2019-04-01T10:01:02.654Z,39.70
2019-04-01T10:02:02.651Z,39.29
2019-04-01T10:03:02.631Z,37.86
2019-04-01T10:04:02.619Z,39.69
2019-04-01T10:05:02.609Z,37.76
2019-04-01T10:06:02.598Z,38.98
2019-04-01T10:07:02.586Z,38.57
2019-04-01T10:08:02.585Z,39.70
2019-04-01T10:09:02.567Z,38.78
2019-04-01T10:10:02.556Z,38.57
2019-04-01T10:11:02.543Z,39.07
2019-04-01T10:12:02.531Z,39.69
2019-04-01T10:13:02.521Z,39.17
2019-04-01T10:14:02.521Z,37.13
2019-04-01T10:15:02.501Z,37.74
2019-04-01T10:16:02.493Z,36.72
2019-04-01T10:17:02.479Z,37.45
2019-04-01T10:18:02.469Z,37.45
2019-04-01T10:19:02.457Z,39.37
2019-04-01T10:20:02.461Z,35.89
2019-04-01T10:21:02.436Z,36.02
2019-04-01T10:22:02.425Z,37.26
2019-04-01T10:23:02.416Z,38.78
2019-04-01T10:24:02.403Z,37.86
2019-04-01T10:25:02.393Z,37.76
2019-04-01T10:26:02.392Z,38.29
2019-04-01T10:27:02.371Z,39.28
2019-04-01T10:28:02.360Z,37.45
2019-04-01T10:29:02.350Z,37.57
2019-04-01T10:30:02.337Z,38.10
2019-04-01T10:31:02.326Z,38.70
2019-04-01T10:32:02.326Z,37.65
2019-04-01T10:33:02.738Z,38.17
2019-04-01T10:34:02.300Z,37.23
2019-04-01T10:35:02.286Z,37.74
2019-04-01T10:36:02.275Z,37.84
2019-04-01T10:37:02.266Z,37.45
2019-04-01T10:38:02.263Z,37.98
2019-04-01T10:39:02.242Z,38.17
2019-04-01T10:40:02.230Z,37.96
2019-04-01T10:41:02.231Z,37.96
2019-04-01T10:42:02.209Z,38.04
2019-04-01T10:43:02.198Z,37.63
2019-04-01T10:44:04.852Z,37.54
2019-04-01T10:45:02.183Z,35.91
2019-04-01T10:46:02.166Z,36.55
2019-04-01T10:47:02.154Z,38.06
2019-04-01T10:48:02.230Z,37.55
2019-04-01T10:49:02.136Z,38.47
2019-04-01T10:50:02.164Z,38.35
2019-04-01T10:51:02.119Z,37.23
2019-04-01T10:52:02.185Z,36.21
2019-04-01T10:53:02.133Z,37.43
2019-04-01T10:54:02.120Z,36.92
2019-04-01T10:55:02.171Z,37.23
2019-04-01T10:56:02.113Z,37.43
2019-04-01T10:57:02.084Z,37.55
2019-04-01T10:58:02.141Z,37.45
2019-04-01T10:59:02.109Z,37.02
2019-04-01T11:00:02.109Z,37.23
2019-04-01T11:01:02.093Z,37.54
2019-04-01T11:02:02.008Z,37.35
2019-04-01T11:03:05.825Z,37.95
2019-04-01T11:04:02.046Z,38.25
2019-04-01T11:05:02.052Z,37.96
2019-04-01T11:06:02.002Z,37.45
2019-04-01T11:07:01.983Z,38.47
2019-04-01T11:08:01.981Z,39.78
2019-04-01T11:09:01.962Z,39.17
2019-04-01T11:10:01.904Z,38.15
2019-04-01T11:11:01.894Z,37.63
2019-04-01T11:12:01.882Z,37.33
2019-04-01T11:13:01.871Z,37.55
2019-04-01T11:14:01.871Z,37.04
2019-04-01T11:15:01.850Z,37.76
2019-04-01T11:16:01.840Z,38.17
2019-04-01T11:17:04.222Z,38.66
2019-04-01T11:18:01.816Z,37.95
2019-04-01T11:19:01.805Z,39.05
2019-04-01T11:20:01.808Z,37.31
2019-04-01T11:21:01.785Z,37.43
2019-04-01T11:22:01.772Z,37.54
2019-04-01T11:23:02.689Z,38.78
2019-04-01T11:24:02.144Z,39.28
2019-04-01T11:25:01.747Z,37.84
2019-04-01T11:26:01.739Z,37.43
2019-04-01T11:27:01.717Z,37.43
2019-04-01T11:28:01.707Z,38.25
2019-04-01T11:29:01.703Z,38.45
2019-04-01T11:30:01.687Z,38.13
2019-04-01T11:31:01.678Z,36.40
2019-04-01T11:32:01.674Z,37.84
2019-04-01T11:33:01.706Z,38.23
2019-04-01T11:34:01.702Z,37.70
2019-04-01T11:35:01.683Z,36.79
2019-04-01T11:36:01.618Z,37.21
2019-04-01T11:37:01.649Z,37.93
2019-04-01T11:38:01.665Z,38.01
2019-04-01T11:39:01.608Z,36.68
2019-04-01T11:40:01.576Z,36.70
2019-04-01T11:41:01.591Z,36.19
2019-04-01T11:42:01.853Z,37.11
2019-04-01T11:43:04.823Z,36.90
2019-04-01T11:44:01.612Z,36.70
2019-04-01T11:45:01.915Z,36.40
2019-04-01T11:46:01.518Z,36.41
2019-04-01T11:47:01.544Z,37.02
2019-04-01T11:48:01.538Z,36.70
2019-04-01T11:49:01.475Z,36.51
2019-04-01T11:50:01.508Z,37.01
2019-04-01T11:51:01.473Z,36.08
2019-04-01T11:52:01.449Z,36.40
2019-04-01T11:53:01.434Z,36.08
2019-04-01T11:54:01.419Z,36.49
2019-04-01T11:55:01.432Z,36.19
2019-04-01T11:56:01.408Z,36.38
2019-04-01T11:57:01.388Z,35.86
2019-04-01T11:58:01.376Z,36.99
2019-04-01T11:59:01.375Z,36.66
2019-04-01T12:00:01.354Z,36.46
2019-04-01T12:01:01.344Z,35.85
2019-04-01T12:02:01.342Z,34.62
2019-04-01T12:03:01.324Z,34.93
2019-04-01T12:04:01.313Z,36.47
2019-04-01T12:05:01.299Z,35.56
2019-04-01T12:06:01.288Z,35.76
2019-04-01T12:07:02.199Z,35.86
2019-04-01T12:08:01.280Z,35.66
2019-04-01T12:09:01.255Z,36.07
2019-04-01T12:10:01.257Z,34.74
2019-04-01T12:11:01.233Z,36.19
2019-04-01T12:12:01.224Z,35.66
2019-04-01T12:13:01.210Z,36.49
2019-04-01T12:14:04.826Z,36.27
2019-04-01T12:15:01.189Z,37.18
2019-04-01T12:16:01.178Z,36.44
2019-04-01T12:17:01.168Z,36.14
2019-04-01T12:18:01.157Z,34.83
2019-04-01T12:19:01.145Z,36.15
2019-04-01T12:20:01.150Z,34.72
2019-04-01T12:21:01.123Z,34.71
2019-04-01T12:22:01.111Z,35.42
2019-04-01T12:23:01.182Z,34.71
2019-04-01T12:24:01.090Z,35.11
2019-04-01T12:25:01.082Z,35.00
2019-04-01T12:26:14.467Z,36.53
2019-04-01T12:27:02.059Z,34.39
2019-04-01T12:28:01.052Z,33.99
2019-04-01T12:29:01.039Z,34.48
2019-04-01T12:30:01.026Z,35.30
2019-04-01T12:31:01.015Z,35.00
2019-04-01T12:32:01.018Z,35.82
2019-04-01T12:33:00.994Z,34.48
2019-04-01T12:34:00.984Z,35.00
2019-04-01T12:35:00.972Z,34.47
2019-04-01T12:36:00.963Z,33.67
2019-04-01T12:37:00.955Z,34.18
2019-04-01T12:38:00.952Z,34.18
2019-04-01T12:39:00.935Z,35.22
2019-04-01T12:40:00.922Z,34.80
2019-04-01T12:41:00.911Z,34.20
2019-04-01T12:42:00.901Z,34.81
2019-04-01T12:43:00.894Z,35.11
2019-04-01T12:44:00.889Z,37.16
2019-04-01T12:45:00.865Z,35.69
2019-04-01T12:46:00.856Z,35.80
2019-04-01T12:47:00.847Z,35.71
2019-04-01T12:48:00.837Z,35.28
2019-04-01T12:49:00.823Z,34.89
2019-04-01T12:50:00.824Z,34.80
2019-04-01T12:51:00.802Z,36.02
2019-04-01T12:52:00.791Z,36.02